Últimos datos


ZONA AGRICOLA ESTACIÓN FECHA TEMPERATURA (°C) HUMEDAD (%) PRECIPITACIÓN (mm) VEL. VIENTO (Km/h) PRESIÓN BAR. (mb) DIR. VIENTO (°)
Caborca CABORCA (EXPORTADORA) 2018-01-16 15:50:00 24.6 18.1 0.0 12.4 993.4 O
Caborca CHAPARRAL 2018-01-16 15:50:00 24.9 15.1 0.0 11.4 985.2 O
Caborca CUCHUJAQUI 2018-01-16 15:40:00 26.1 12.7 0.0 6.1 953.5 NO
Caborca EL CANAN 2018-01-16 15:50:00 26.1 13.0 0.0 5.9 972.4 NO
Caborca LA RIVERA 2018-01-16 15:50:00 22.5 37.0 0.0 3.5 1011.1 ENE
Caborca LOLEYTA 2018-01-16 15:50:00 23.2 29.8 0.0 12.5 1008.4 O
Caborca RANCHO AGUILAR 2018-01-16 15:40:00 23.2 35.6 0.0 8.4 1010.7 ONO
Caborca SAN LUIS 2018-01-16 15:50:00 24.8 18.5 0.0 9.4 991.8 O
Caborca SUR CABORCA (LA BARRA) 2018-01-16 15:50:00 25.2 21.1 0.0 11.2 988.7 SO
Costa de Hermosillo ABEJAS 2018-01-16 15:30:00 28.4 16.6 0.0 7.1 1000.4 SO
Costa de Hermosillo CHIPILON 2018-01-16 15:30:00 28.8 17.0 0.0 18.2 1002.0 NO
Costa de Hermosillo CUICHI 2018-01-16 15:30:00 27.7 19.2 0.0 8.4 1019.8 NO
Costa de Hermosillo DOLORES JAM 2018-01-16 15:40:00 29.2 17.3 0.0 13.5 1008.8 ONO
Costa de Hermosillo EL BERVANO 2018-01-16 15:30:00 27.9 21.2 0.0 8.0 ONO
Costa de Hermosillo EL ROSARIO 2018-01-16 15:30:00 29.3 15.4 0.0 8.7 SO
Costa de Hermosillo GREEN STRIPE 2018-01-16 15:40:00 29.0 15.0 0.0 5.9 1006.2 SSO
Costa de Hermosillo KINO 2018-01-16 15:20:00 25.5 36.5 0.0 12.6 1010.9 O
Costa de Hermosillo LA BACHATA 2018-01-16 15:30:00 28.8 16.1 0.0 5.8 OSO
Costa de Hermosillo PEAÑA 2018-01-16 15:30:00 27.7 18.5 0.0 6.9 1007.8 NO
Costa de Hermosillo SAHUARAL (AGUA DULCE) 2018-01-16 15:50:00 25.8 35.5 0.0 16.1 1011.6 O
Costa de Hermosillo SAN CARLITOS 2018-01-16 15:40:00 28.9 15.3 0.0 8.0 1005.4 O
Costa de Hermosillo SANTA ELENA 2018-01-16 15:20:00 28.7 16.6 0.0 8.9 1009.6 ONO
Costa de Hermosillo SANTO NIÑO 2018-01-16 15:40:00 29.1 15.1 0.0 5.2 997.9 SSO
Fuerte Mayo EJ. 21 DE MARZO 2018-01-16 15:40:00 25.4 47.1 0.0 7.0 1009.1 SSO
Fuerte Mayo TOTOLIBOQUI 2018-01-16 15:30:00 23.4 55.8 0.0 11.6 1010.3 O
Guaymas Empalme BUENOS AIRES GYM 2018-01-16 15:10:00 27.1 27.2 0.0 10.9 1012.1 SO
Guaymas Empalme CAMPO SELZA 2018-01-16 15:40:00 27.0 29.9 0.0 9.1 1008.6 S
Guaymas Empalme LAS TREINTA 2018-01-16 15:10:00 28.9 20.2 0.0 6.8 992.9 NNO
Guaymas Empalme ORTIZ (LA CAMPANA) 2018-01-16 15:40:00 30.7 15.1 0.0 10.0 999.0 SSO
Guaymas Empalme SANTA MARIA (ESTABLO FATIMA) 2018-01-16 11:30:00 26.3 24.5 0.0 4.6 1009.3 ONO
Pesqueira SELVA 2018-01-16 15:40:00 29.9 12.6 0.0 2.7 967.7 ENE
Pesqueira TRACALITA 2018-01-16 15:40:00 29.0 14.9 0.0 6.8 968.8 SE
San Luis Río Colorado COLONIA MEDANO 2018-01-16 15:40:00 22.5 46.1 0.0 10.7 1016.1 NO
San Luis Río Colorado ENCINAS JOHNSON 2018-01-16 15:40:00 26.3 24.8 0.0 5.9 1016.4 NNO
San Luis Río Colorado MOCTEZUMA 2018-01-16 15:40:00 25.1 27.2 0.0 14.7 1015.6 N
San Luis Río Colorado RANCHO EL PIVOTE 2018-01-16 15:40:00 24.9 25.9 0.0 14.5 1013.3 N
San Luis Río Colorado RANCHO QUIROZ 2018-01-16 15:30:00 24.1 34.7 0.0 10.2 1017.2 N
Sonoyta EL CORONEL 2018-01-16 15:40:00 23.8 17.2 0.0 7.0 955.7 N
Sonoyta SONOYTA (HIGAREDA) 2018-01-16 15:30:00 24.6 18.4 0.0 3.4 963.0 O
Valle del Mayo BASCONCOBE (UT ETCHOJOA) 2018-01-16 15:40:00 22.7 58.1 0.0 14.3 ONO
Valle del Mayo CAPETAMAYA 2018-01-16 15:40:00 26.5 38.2 0.0 10.5 1009.7 ONO
Valle del Mayo CHIHUAHUITA 2018-01-16 15:40:00 26.6 36.7 0.0 15.0 1009.0 ONO
Valle del Mayo HUATABAMPO (LOS CUATES) 2018-01-16 15:40:00 24.7 50.9 0.0 13.3 1010.8 O
Valle del Mayo LA REGLA 2018-01-16 15:40:00 24.9 48.9 0.0 14.2 1014.7 ONO
Valle del Mayo LA VASCONIA 2018-01-16 15:50:00 23.6 55.2 0.0 13.0 1014.2 O
Valle del Mayo NAVOBAXIA (LAS PIOCHAS) 2018-01-16 15:40:00 23.8 55.5 0.0 11.1 1012.5 O
Valle del Mayo PUEBLO MAYO 2018-01-16 15:40:00 26.2 45.1 0.0 11.2 1005.6 ONO
Valle del Mayo SAHUARAL DE OTERO 2018-01-16 15:40:00 23.9 44.5 0.0 16.8 1014.0 O
Valle del Mayo SEMAY 2018-01-16 15:30:00 24.8 47.4 0.0 15.4 O
Valle del Mayo TESIA 2018-01-16 15:40:00 26.9 33.8 0.0 4.8 ONO
Valle del Mayo TRES CARLOS (EL GIRASOL) 2018-01-16 15:40:00 24.9 38.9 0.0 18.0 1008.6 ONO
Valle del Yaqui BLOCK 1101 2018-01-16 15:50:00 25.8 38.7 0.0 15.4 1012.7 O
Valle del Yaqui BLOCK 111 SAN JOSÉ DE BÁCUM 2018-01-16 15:50:00 26.9 29.8 0.0 16.3 1012.6 O
Valle del Yaqui BLOCK 1213 ATOTONILCO 2018-01-16 15:50:00 24.3 43.1 0.0 12.1 1014.7 O
Valle del Yaqui BlOCK 1418 (SAN VICENTE) 2018-01-16 15:40:00 25.9 40.9 0.0 14.7 994.3 O
Valle del Yaqui BLOCK 1423 LOTE 1 2018-01-16 15:40:00 24.9 41.1 0.0 9.7 1014.5 O
Valle del Yaqui BLOCK 1703 LOTE 6 2018-01-16 15:30:00 26.4 38.7 0.0 7.5 1011.7 ONO
Valle del Yaqui BLOCK 1922 2018-01-16 15:40:00 26.6 47.4 0.0 7.8 1009.5 ONO
Valle del Yaqui BLOCK 1936 SIBOLIBAMPO 2018-01-16 15:50:00 25.4 50.6 0.0 14.0 1009.6 OSO
Valle del Yaqui BLOCK 2010 (SANTA MARIA) 2018-01-16 15:30:00 26.5 42.7 0.0 17.5 OSO
Valle del Yaqui BLOCK 2328 AGUA BLANCA 2018-01-16 15:50:00 23.4 59.9 0.0 12.9 1012.7 SO
Valle del Yaqui BLOCK 2732 (BUAYSIACOBE) 2018-01-16 15:40:00 22.3 65.3 0.0 14.0 1008.3 OSO
Valle del Yaqui BLOCK 419 2018-01-16 15:50:00 25.2 39.8 0.0 14.8 1013.1 OSO
Valle del Yaqui BLOCK 609 (CAWE) 2018-01-16 15:40:00 25.2 40.0 0.0 15.9 1006.3 OSO
Valle del Yaqui BLOCK 720 LOTE 30 2018-01-16 15:40:00 27.6 30.5 0.0 16.4 1006.5 ONO
Valle del Yaqui BLOCK 727 (CIMMYT) 2018-01-16 11:45:00 22.6 56.0 0.0 3.2 1040.6 NO
Valle del Yaqui BLOCK 731 LOTE 20 2018-01-16 15:40:00 24.5 36.5 0.0 18.9 1017.1 NNO
Valle del Yaqui BLOCK 910 (CIANO) 2018-01-16 15:40:00 26.6 36.7 0.0 11.0 1005.9 OSO
Valle del Yaqui ESTACIÓN CORRAL (SAN SALVADOR) 2018-01-16 15:40:00 28.9 20.8 0.0 9.5 1010.6 SO
Valle del Yaqui POTAM 2018-01-16 15:40:00 24.5 39.9 0.0 7.8 1012.7 O
Zonas Serranas BACERAC (LA MISION) 2018-01-16 15:40:00 11.3 31.7 0.0 24.5 908.6 E
Zonas Serranas BACOACHI 2018-01-16 15:40:00 20.5 21.3 0.0 8.8 902.0 E
Zonas Serranas BANÁMICHI (CADAVERACHI) 2018-01-16 15:40:00 26.3 17.2 0.0 3.0 941.3 SO
Zonas Serranas BAVIÁCORA (LA CAPILLA) 2018-01-16 15:40:00 27.3 16.2 0.0 3.4 952.0 OSO
Zonas Serranas BAVISPE (LANG) 2018-01-16 15:20:00 13.0 29.1 0.0 10.1 908.7 NNE
Zonas Serranas CASA COLORADA 2018-01-16 15:10:00 31.7 16.7 0.0 7.6 993.1 SSO
Zonas Serranas CHINO GORDO 2018-01-16 15:40:00 28.1 29.0 0.0 13.7 987.3 OSO
Zonas Serranas CUMPAS (LOS PINOS) 2018-01-16 15:40:00 20.7 21.4 0.0 26.9 921.0 NE
Zonas Serranas EL 15 CRISP 2018-01-16 15:30:00 24.1 14.0 0.0 2.9 917.4 SO
Zonas Serranas HUÁSABAS (HUEVERA) 2018-01-16 15:40:00 21.9 20.5 0.0 12.5 954.6 N
Zonas Serranas KM9 EJIDO AGUA PRIETA 2018-01-16 15:20:00 11.7 29.8 0.0 16.6 891.4 NE
Zonas Serranas LA LADRILLERA 2018-01-16 15:40:00 26.3 14.0 0.0 6.8 918.3 ENE
Zonas Serranas LA MILPA 2018-01-16 15:40:00 13.7 26.9 0.0 22.0 862.0 ENE
Zonas Serranas LAS PALMAS 2018-01-16 15:30:00 25.4 12.7 0.0 3.1 924.1 NE
Zonas Serranas LOS ALAMITOS 2018-01-16 05:00:00 6.9 42.4 0.0 0.9 933.4 NNO
Zonas Serranas LOS ALGODONES 2018-01-16 15:40:00 29.2 21.7 0.0 9.6 979.9 ENE
Zonas Serranas LOS CORRALES 2018-01-16 15:40:00 26.4 10.5 0.0 9.2 959.4 NO
Zonas Serranas LOS COYOTES 2018-01-16 15:40:00 18.9 23.7 0.0 0.0 587.2 SSE
Zonas Serranas MATAPE 2018-01-16 15:30:00 26.7 15.3 0.0 5.2 932.1 NO
Zonas Serranas MAZATÁN (BUENOS AIRES) 2018-01-16 15:20:00 29.1 14.5 0.0 6.6 957.0 O
Zonas Serranas NACORI CHICO (EL MOLINO) 2018-01-16 15:40:00 21.7 21.0 0.0 11.0 925.0 NO
Zonas Serranas QUEROBABI (EL RODEO) 2018-01-16 15:30:00 26.2 13.3 0.0 6.7 948.2 NNO
Zonas Serranas ROSARIO TESOPACO 2018-01-16 15:30:00 28.8 19.3 0.0 8.7 961.3 NO
Zonas Serranas SAHUARIPA (EL CAMPITO) 2018-01-16 15:00:00 26.8 17.8 0.0 10.8 962.1 NO
Zonas Serranas SANTA ADELA 2018-01-16 15:30:00 26.8 22.4 0.0 9.2 897.4 NO
Zonas Serranas SANTA CRUZ (FRESNOS) 2018-01-16 15:40:00 17.2 22.2 0.0 10.6 870.0 NE
Zonas Serranas SUAQUI GRANDE (EL TUNAL) 2018-01-16 15:40:00 30.8 15.3 0.0 7.1 985.3 S
Zonas Serranas TEPACHE (CUMARO) 2018-01-16 15:30:00 25.6 16.8 0.0 11.3 945.3 NNE
Zonas Serranas URES (SAN JOAQUIN) 2018-01-16 15:30:00 27.5 18.0 0.0 4.9 967.0 O
Zonas Serranas YECORA 2018-01-16 15:30:00 15.0 31.0 0.0 13.5 799.0 NO